Pointe-Lebel, Canada
Current Conditions -  °F | °C
As of 6:00 AM on Friday 19 Dec 2014 (Local Time) from CYBC Reporting Station
Overcast Overcast  
Wind Chill: -12°   Ceiling: 10000
Heat Index: -5°   Visibility: 9mi
Dew Point: -12°   Wind: 16mph
Humidity: 59%   Direction: 360°N
Pressure: 29.85"   Gusts: NA
Location:  49.15°N, 68.2°W
Report Text: CYBC 191100Z AUTO 36014KT 9SM BKN100 OVC190 M05/M12 A2985 RMK SLP108
Loading
Personal Weather Stations






























Interactive Weather Map New forecast layout! Learn more

10-Day Weather Forecast

Advertisements
Track Severe Weather on mobile